sensor_id;sensor_type;location;lat;lon;timestamp;P1;durP1;ratioP1;P2;durP2;ratioP2
22103;SDS011;11218;48.886;9.426;2022-11-30T00:01:57;79.20;;;30.50;;
22103;SDS011;11218;48.886;9.426;2022-11-30T00:04:27;68.60;;;29.80;;
22103;SDS011;11218;48.886;9.426;2022-11-30T00:06:54;72.50;;;28.40;;
22103;SDS011;11218;48.886;9.426;2022-11-30T00:09:24;74.55;;;29.02;;
22103;SDS011;11218;48.886;9.426;2022-11-30T00:11:52;85.85;;;31.63;;
22103;SDS011;11218;48.886;9.426;2022-11-30T00:14:19;81.35;;;30.70;;
22103;SDS011;11218;48.886;9.426;2022-11-30T00:16:47;77.68;;;29.60;;
22103;SDS011;11218;48.886;9.426;2022-11-30T00:19:15;71.75;;;28.13;;
22103;SDS011;11218;48.886;9.426;2022-11-30T00:21:43;77.28;;;30.40;;
22103;SDS011;11218;48.886;9.426;2022-11-30T00:24:11;82.13;;;30.38;;
22103;SDS011;11218;48.886;9.426;2022-11-30T00:26:40;76.43;;;29.45;;
22103;SDS011;11218;48.886;9.426;2022-11-30T00:29:08;66.32;;;28.00;;
22103;SDS011;11218;48.886;9.426;2022-11-30T00:31:36;72.10;;;29.52;;
22103;SDS011;11218;48.886;9.426;2022-11-30T00:34:04;80.65;;;28.98;;
22103;SDS011;11218;48.886;9.426;2022-11-30T00:36:32;77.80;;;28.50;;
22103;SDS011;11218;48.886;9.426;2022-11-30T00:39:00;76.45;;;29.52;;
22103;SDS011;11218;48.886;9.426;2022-11-30T00:41:28;77.13;;;30.98;;
22103;SDS011;11218;48.886;9.426;2022-11-30T00:43:57;77.55;;;28.83;;
22103;SDS011;11218;48.886;9.426;2022-11-30T00:46:25;61.58;;;25.52;;
22103;SDS011;11218;48.886;9.426;2022-11-30T00:48:53;79.63;;;28.42;;
22103;SDS011;11218;48.886;9.426;2022-11-30T00:51:21;71.13;;;27.48;;
22103;SDS011;11218;48.886;9.426;2022-11-30T00:53:49;65.72;;;27.02;;
22103;SDS011;11218;48.886;9.426;2022-11-30T00:56:17;75.30;;;28.88;;
22103;SDS011;11218;48.886;9.426;2022-11-30T00:58:45;70.25;;;27.52;;
22103;SDS011;11218;48.886;9.426;2022-11-30T01:01:14;70.30;;;27.00;;
22103;SDS011;11218;48.886;9.426;2022-11-30T01:03:42;63.08;;;26.13;;
22103;SDS011;11218;48.886;9.426;2022-11-30T01:06:10;72.38;;;26.75;;
22103;SDS011;11218;48.886;9.426;2022-11-30T01:08:37;61.17;;;24.92;;
22103;SDS011;11218;48.886;9.426;2022-11-30T01:11:06;65.32;;;25.10;;
22103;SDS011;11218;48.886;9.426;2022-11-30T01:13:38;66.05;;;25.10;;
22103;SDS011;11218;48.886;9.426;2022-11-30T01:16:07;72.90;;;24.83;;
22103;SDS011;11218;48.886;9.426;2022-11-30T01:18:38;58.60;;;22.70;;
22103;SDS011;11218;48.886;9.426;2022-11-30T01:21:06;61.05;;;22.48;;
22103;SDS011;11218;48.886;9.426;2022-11-30T01:23:35;56.25;;;22.40;;
22103;SDS011;11218;48.886;9.426;2022-11-30T01:26:03;52.05;;;22.08;;
22103;SDS011;11218;48.886;9.426;2022-11-30T01:28:31;68.10;;;24.38;;
22103;SDS011;11218;48.886;9.426;2022-11-30T01:31:00;55.15;;;20.95;;
22103;SDS011;11218;48.886;9.426;2022-11-30T01:33:30;66.07;;;23.70;;
22103;SDS011;11218;48.886;9.426;2022-11-30T01:36:00;59.30;;;22.75;;
22103;SDS011;11218;48.886;9.426;2022-11-30T01:38:30;57.40;;;21.83;;
22103;SDS011;11218;48.886;9.426;2022-11-30T01:40:59;64.88;;;24.05;;
22103;SDS011;11218;48.886;9.426;2022-11-30T01:43:35;68.10;;;24.80;;
22103;SDS011;11218;48.886;9.426;2022-11-30T01:46:05;58.45;;;20.20;;
22103;SDS011;11218;48.886;9.426;2022-11-30T01:48:56;65.32;;;22.98;;
22103;SDS011;11218;48.886;9.426;2022-11-30T01:51:33;54.45;;;19.80;;
22103;SDS011;11218;48.886;9.426;2022-11-30T01:54:04;56.80;;;21.55;;
22103;SDS011;11218;48.886;9.426;2022-11-30T01:56:35;57.92;;;21.05;;
22103;SDS011;11218;48.886;9.426;2022-11-30T01:59:04;55.58;;;20.08;;
22103;SDS011;11218;48.886;9.426;2022-11-30T02:01:32;63.30;;;21.55;;
22103;SDS011;11218;48.886;9.426;2022-11-30T02:04:01;71.75;;;22.85;;
22103;SDS011;11218;48.886;9.426;2022-11-30T02:06:34;69.93;;;24.67;;
22103;SDS011;11218;48.886;9.426;2022-11-30T02:09:02;65.28;;;22.92;;
22103;SDS011;11218;48.886;9.426;2022-11-30T02:11:30;61.92;;;22.17;;
22103;SDS011;11218;48.886;9.426;2022-11-30T02:14:00;57.72;;;21.00;;
22103;SDS011;11218;48.886;9.426;2022-11-30T02:16:45;55.10;;;21.23;;
22103;SDS011;11218;48.886;9.426;2022-11-30T02:19:29;57.97;;;20.40;;
22103;SDS011;11218;48.886;9.426;2022-11-30T02:22:26;48.97;;;17.55;;
22103;SDS011;11218;48.886;9.426;2022-11-30T02:25:06;53.00;;;20.45;;
22103;SDS011;11218;48.886;9.426;2022-11-30T02:27:42;63.30;;;22.45;;
22103;SDS011;11218;48.886;9.426;2022-11-30T02:30:21;56.97;;;20.13;;
22103;SDS011;11218;48.886;9.426;2022-11-30T02:32:51;57.22;;;20.50;;
22103;SDS011;11218;48.886;9.426;2022-11-30T02:35:23;57.88;;;21.38;;
22103;SDS011;11218;48.886;9.426;2022-11-30T02:37:55;59.22;;;20.45;;
22103;SDS011;11218;48.886;9.426;2022-11-30T02:40:24;48.25;;;18.67;;
22103;SDS011;11218;48.886;9.426;2022-11-30T02:42:53;54.55;;;20.17;;
22103;SDS011;11218;48.886;9.426;2022-11-30T02:45:27;60.40;;;20.10;;
22103;SDS011;11218;48.886;9.426;2022-11-30T02:48:01;63.22;;;22.10;;
22103;SDS011;11218;48.886;9.426;2022-11-30T02:50:35;55.17;;;18.95;;
22103;SDS011;11218;48.886;9.426;2022-11-30T02:53:06;72.32;;;22.90;;
22103;SDS011;11218;48.886;9.426;2022-11-30T02:55:36;62.58;;;22.02;;
22103;SDS011;11218;48.886;9.426;2022-11-30T02:58:03;62.30;;;20.08;;
22103;SDS011;11218;48.886;9.426;2022-11-30T03:00:33;54.22;;;19.33;;
22103;SDS011;11218;48.886;9.426;2022-11-30T03:03:01;64.88;;;21.70;;
22103;SDS011;11218;48.886;9.426;2022-11-30T03:05:29;59.75;;;20.70;;
22103;SDS011;11218;48.886;9.426;2022-11-30T03:07:56;47.55;;;18.02;;
22103;SDS011;11218;48.886;9.426;2022-11-30T03:10:24;50.85;;;19.42;;
22103;SDS011;11218;48.886;9.426;2022-11-30T03:12:55;54.70;;;20.42;;
22103;SDS011;11218;48.886;9.426;2022-11-30T03:15:24;59.55;;;21.48;;
22103;SDS011;11218;48.886;9.426;2022-11-30T03:17:54;65.03;;;22.65;;
22103;SDS011;11218;48.886;9.426;2022-11-30T03:20:22;69.70;;;24.52;;
22103;SDS011;11218;48.886;9.426;2022-11-30T03:22:49;72.47;;;24.90;;
22103;SDS011;11218;48.886;9.426;2022-11-30T03:25:17;77.18;;;26.02;;
22103;SDS011;11218;48.886;9.426;2022-11-30T03:27:45;58.17;;;21.25;;
22103;SDS011;11218;48.886;9.426;2022-11-30T03:30:13;57.90;;;26.10;;
22103;SDS011;11218;48.886;9.426;2022-11-30T03:32:41;56.17;;;25.20;;
22103;SDS011;11218;48.886;9.426;2022-11-30T03:35:10;56.25;;;22.55;;
22103;SDS011;11218;48.886;9.426;2022-11-30T03:37:38;63.97;;;26.00;;
22103;SDS011;11218;48.886;9.426;2022-11-30T03:40:06;55.42;;;22.35;;
22103;SDS011;11218;48.886;9.426;2022-11-30T03:42:35;63.33;;;25.95;;
22103;SDS011;11218;48.886;9.426;2022-11-30T03:45:03;60.72;;;24.30;;
22103;SDS011;11218;48.886;9.426;2022-11-30T03:47:32;52.85;;;22.27;;
22103;SDS011;11218;48.886;9.426;2022-11-30T03:49:59;62.30;;;24.55;;
22103;SDS011;11218;48.886;9.426;2022-11-30T03:52:29;64.55;;;27.10;;
22103;SDS011;11218;48.886;9.426;2022-11-30T03:54:56;62.78;;;27.48;;
22103;SDS011;11218;48.886;9.426;2022-11-30T03:57:24;60.53;;;27.60;;
22103;SDS011;11218;48.886;9.426;2022-11-30T03:59:52;64.43;;;32.63;;
22103;SDS011;11218;48.886;9.426;2022-11-30T04:02:20;74.95;;;41.80;;
22103;SDS011;11218;48.886;9.426;2022-11-30T04:04:48;93.78;;;54.60;;
22103;SDS011;11218;48.886;9.426;2022-11-30T04:07:16;63.20;;;28.75;;
22103;SDS011;11218;48.886;9.426;2022-11-30T04:09:45;60.88;;;25.10;;
22103;SDS011;11218;48.886;9.426;2022-11-30T04:12:13;63.58;;;31.73;;
22103;SDS011;11218;48.886;9.426;2022-11-30T04:14:41;61.85;;;29.65;;
22103;SDS011;11218;48.886;9.426;2022-11-30T04:17:10;64.57;;;25.80;;
22103;SDS011;11218;48.886;9.426;2022-11-30T04:19:37;58.20;;;20.25;;
22103;SDS011;11218;48.886;9.426;2022-11-30T04:22:05;47.17;;;17.60;;
22103;SDS011;11218;48.886;9.426;2022-11-30T04:24:33;52.03;;;22.55;;
22103;SDS011;11218;48.886;9.426;2022-11-30T04:27:02;54.42;;;21.77;;
22103;SDS011;11218;48.886;9.426;2022-11-30T04:29:30;48.67;;;20.92;;
22103;SDS011;11218;48.886;9.426;2022-11-30T04:31:58;52.80;;;20.10;;
22103;SDS011;11218;48.886;9.426;2022-11-30T04:34:26;63.72;;;23.15;;
22103;SDS011;11218;48.886;9.426;2022-11-30T04:36:54;60.10;;;20.70;;
22103;SDS011;11218;48.886;9.426;2022-11-30T04:39:26;58.40;;;22.77;;
22103;SDS011;11218;48.886;9.426;2022-11-30T04:41:53;61.03;;;28.60;;
22103;SDS011;11218;48.886;9.426;2022-11-30T04:44:23;77.13;;;30.45;;
22103;SDS011;11218;48.886;9.426;2022-11-30T04:46:51;55.17;;;21.98;;
22103;SDS011;11218;48.886;9.426;2022-11-30T04:49:19;52.72;;;22.73;;
22103;SDS011;11218;48.886;9.426;2022-11-30T04:51:46;57.28;;;21.38;;
22103;SDS011;11218;48.886;9.426;2022-11-30T04:54:14;65.85;;;24.48;;
22103;SDS011;11218;48.886;9.426;2022-11-30T04:56:42;58.10;;;21.27;;
22103;SDS011;11218;48.886;9.426;2022-11-30T04:59:10;56.78;;;20.95;;
22103;SDS011;11218;48.886;9.426;2022-11-30T05:01:39;54.92;;;19.08;;
22103;SDS011;11218;48.886;9.426;2022-11-30T05:04:07;48.13;;;17.77;;
22103;SDS011;11218;48.886;9.426;2022-11-30T05:06:35;50.85;;;18.20;;
22103;SDS011;11218;48.886;9.426;2022-11-30T05:09:03;60.55;;;20.65;;
22103;SDS011;11218;48.886;9.426;2022-11-30T05:11:31;53.80;;;19.02;;
22103;SDS011;11218;48.886;9.426;2022-11-30T05:13:59;53.50;;;18.75;;
22103;SDS011;11218;48.886;9.426;2022-11-30T05:16:27;58.78;;;20.52;;
22103;SDS011;11218;48.886;9.426;2022-11-30T05:18:56;53.75;;;19.80;;
22103;SDS011;11218;48.886;9.426;2022-11-30T05:21:24;56.95;;;20.92;;
22103;SDS011;11218;48.886;9.426;2022-11-30T05:23:52;69.55;;;24.27;;
22103;SDS011;11218;48.886;9.426;2022-11-30T05:26:20;54.67;;;19.95;;
22103;SDS011;11218;48.886;9.426;2022-11-30T05:28:48;57.58;;;19.92;;
22103;SDS011;11218;48.886;9.426;2022-11-30T05:31:16;57.67;;;20.05;;
22103;SDS011;11218;48.886;9.426;2022-11-30T05:33:48;51.50;;;19.35;;
22103;SDS011;11218;48.886;9.426;2022-11-30T05:36:18;61.97;;;20.38;;
22103;SDS011;11218;48.886;9.426;2022-11-30T05:38:47;48.72;;;16.98;;
22103;SDS011;11218;48.886;9.426;2022-11-30T05:41:15;58.00;;;19.70;;
22103;SDS011;11218;48.886;9.426;2022-11-30T05:43:43;158.90;;;39.10;;
22103;SDS011;11218;48.886;9.426;2022-11-30T05:46:11;60.10;;;19.10;;
22103;SDS011;11218;48.886;9.426;2022-11-30T05:48:39;69.40;;;22.08;;
22103;SDS011;11218;48.886;9.426;2022-11-30T05:51:09;72.70;;;24.15;;
22103;SDS011;11218;48.886;9.426;2022-11-30T05:53:40;50.97;;;21.92;;
22103;SDS011;11218;48.886;9.426;2022-11-30T05:56:09;81.90;;;35.72;;
22103;SDS011;11218;48.886;9.426;2022-11-30T05:58:38;69.95;;;30.02;;
22103;SDS011;11218;48.886;9.426;2022-11-30T06:01:06;55.15;;;19.88;;
22103;SDS011;11218;48.886;9.426;2022-11-30T06:03:35;65.18;;;21.95;;
22103;SDS011;11218;48.886;9.426;2022-11-30T06:06:03;61.90;;;20.88;;
22103;SDS011;11218;48.886;9.426;2022-11-30T06:08:31;64.40;;;21.95;;
22103;SDS011;11218;48.886;9.426;2022-11-30T06:11:00;59.55;;;22.15;;
22103;SDS011;11218;48.886;9.426;2022-11-30T06:13:28;56.28;;;22.42;;
22103;SDS011;11218;48.886;9.426;2022-11-30T06:15:57;69.93;;;23.58;;
22103;SDS011;11218;48.886;9.426;2022-11-30T06:18:29;52.58;;;20.08;;
22103;SDS011;11218;48.886;9.426;2022-11-30T06:20:58;59.47;;;21.80;;
22103;SDS011;11218;48.886;9.426;2022-11-30T06:23:27;55.60;;;19.58;;
22103;SDS011;11218;48.886;9.426;2022-11-30T06:25:55;59.15;;;20.38;;
22103;SDS011;11218;48.886;9.426;2022-11-30T06:28:25;66.95;;;22.98;;
22103;SDS011;11218;48.886;9.426;2022-11-30T06:30:56;70.45;;;24.23;;
22103;SDS011;11218;48.886;9.426;2022-11-30T06:33:24;64.30;;;25.55;;
22103;SDS011;11218;48.886;9.426;2022-11-30T06:35:52;72.18;;;25.27;;
22103;SDS011;11218;48.886;9.426;2022-11-30T06:38:20;60.20;;;22.20;;
22103;SDS011;11218;48.886;9.426;2022-11-30T06:40:49;63.15;;;20.92;;
22103;SDS011;11218;48.886;9.426;2022-11-30T06:43:16;66.25;;;22.65;;
22103;SDS011;11218;48.886;9.426;2022-11-30T06:45:46;64.15;;;22.08;;
22103;SDS011;11218;48.886;9.426;2022-11-30T06:48:14;48.88;;;18.00;;
22103;SDS011;11218;48.886;9.426;2022-11-30T06:50:42;59.65;;;19.88;;
22103;SDS011;11218;48.886;9.426;2022-11-30T06:53:15;82.18;;;23.50;;
22103;SDS011;11218;48.886;9.426;2022-11-30T06:55:43;61.85;;;19.95;;
22103;SDS011;11218;48.886;9.426;2022-11-30T06:58:11;57.53;;;19.77;;
22103;SDS011;11218;48.886;9.426;2022-11-30T07:00:39;61.40;;;20.05;;
22103;SDS011;11218;48.886;9.426;2022-11-30T07:03:09;60.90;;;19.83;;
22103;SDS011;11218;48.886;9.426;2022-11-30T07:05:38;61.72;;;19.73;;
22103;SDS011;11218;48.886;9.426;2022-11-30T07:08:09;56.80;;;18.77;;
22103;SDS011;11218;48.886;9.426;2022-11-30T07:10:38;109.88;;;27.98;;
22103;SDS011;11218;48.886;9.426;2022-11-30T07:13:08;68.25;;;22.65;;
22103;SDS011;11218;48.886;9.426;2022-11-30T07:15:37;71.53;;;22.40;;
22103;SDS011;11218;48.886;9.426;2022-11-30T07:18:05;78.10;;;23.73;;
22103;SDS011;11218;48.886;9.426;2022-11-30T07:20:34;88.75;;;25.90;;
22103;SDS011;11218;48.886;9.426;2022-11-30T07:23:03;72.88;;;23.13;;
22103;SDS011;11218;48.886;9.426;2022-11-30T07:25:45;71.60;;;22.77;;
22103;SDS011;11218;48.886;9.426;2022-11-30T07:28:31;90.50;;;27.02;;
22103;SDS011;11218;48.886;9.426;2022-11-30T07:30:59;76.32;;;25.27;;
22103;SDS011;11218;48.886;9.426;2022-11-30T07:33:27;70.45;;;23.48;;
22103;SDS011;11218;48.886;9.426;2022-11-30T07:35:58;77.55;;;24.35;;
22103;SDS011;11218;48.886;9.426;2022-11-30T07:38:26;82.28;;;25.40;;
22103;SDS011;11218;48.886;9.426;2022-11-30T07:40:56;78.00;;;24.60;;
22103;SDS011;11218;48.886;9.426;2022-11-30T07:43:23;96.95;;;28.50;;
22103;SDS011;11218;48.886;9.426;2022-11-30T07:45:51;81.95;;;24.20;;
22103;SDS011;11218;48.886;9.426;2022-11-30T07:48:20;83.35;;;24.42;;
22103;SDS011;11218;48.886;9.426;2022-11-30T07:50:48;74.90;;;23.58;;
22103;SDS011;11218;48.886;9.426;2022-11-30T07:53:18;87.03;;;25.15;;
22103;SDS011;11218;48.886;9.426;2022-11-30T07:55:46;89.90;;;25.60;;
22103;SDS011;11218;48.886;9.426;2022-11-30T07:58:22;90.57;;;27.35;;
22103;SDS011;11218;48.886;9.426;2022-11-30T08:00:49;78.40;;;24.27;;
22103;SDS011;11218;48.886;9.426;2022-11-30T08:03:17;88.68;;;25.45;;
22103;SDS011;11218;48.886;9.426;2022-11-30T08:05:45;77.07;;;24.17;;
22103;SDS011;11218;48.886;9.426;2022-11-30T08:08:13;77.13;;;25.25;;
22103;SDS011;11218;48.886;9.426;2022-11-30T08:10:43;81.85;;;25.17;;
22103;SDS011;11218;48.886;9.426;2022-11-30T08:13:10;64.55;;;22.55;;
22103;SDS011;11218;48.886;9.426;2022-11-30T08:15:38;68.72;;;24.48;;
22103;SDS011;11218;48.886;9.426;2022-11-30T08:18:06;79.88;;;25.65;;
22103;SDS011;11218;48.886;9.426;2022-11-30T08:20:34;79.20;;;25.60;;
22103;SDS011;11218;48.886;9.426;2022-11-30T08:23:02;73.00;;;25.20;;
22103;SDS011;11218;48.886;9.426;2022-11-30T08:25:30;84.15;;;25.33;;
22103;SDS011;11218;48.886;9.426;2022-11-30T08:27:59;74.85;;;24.33;;
22103;SDS011;11218;48.886;9.426;2022-11-30T08:30:27;100.43;;;28.00;;
22103;SDS011;11218;48.886;9.426;2022-11-30T08:32:58;77.45;;;25.27;;
22103;SDS011;11218;48.886;9.426;2022-11-30T08:35:26;71.03;;;24.52;;
22103;SDS011;11218;48.886;9.426;2022-11-30T08:37:54;61.22;;;22.02;;
22103;SDS011;11218;48.886;9.426;2022-11-30T08:40:21;75.88;;;25.77;;
22103;SDS011;11218;48.886;9.426;2022-11-30T08:42:49;76.03;;;24.30;;
22103;SDS011;11218;48.886;9.426;2022-11-30T08:45:18;63.95;;;22.98;;
22103;SDS011;11218;48.886;9.426;2022-11-30T08:47:47;72.70;;;23.80;;
22103;SDS011;11218;48.886;9.426;2022-11-30T08:50:14;85.95;;;28.23;;
22103;SDS011;11218;48.886;9.426;2022-11-30T08:52:42;77.38;;;25.05;;
22103;SDS011;11218;48.886;9.426;2022-11-30T08:55:10;76.25;;;25.65;;
22103;SDS011;11218;48.886;9.426;2022-11-30T08:57:38;74.22;;;23.83;;
22103;SDS011;11218;48.886;9.426;2022-11-30T09:00:07;59.38;;;21.55;;
22103;SDS011;11218;48.886;9.426;2022-11-30T09:02:37;54.80;;;20.48;;
22103;SDS011;11218;48.886;9.426;2022-11-30T09:05:05;79.32;;;25.08;;
22103;SDS011;11218;48.886;9.426;2022-11-30T09:07:33;71.63;;;23.88;;
22103;SDS011;11218;48.886;9.426;2022-11-30T09:10:02;105.43;;;29.05;;
22103;SDS011;11218;48.886;9.426;2022-11-30T09:12:32;76.22;;;23.95;;
22103;SDS011;11218;48.886;9.426;2022-11-30T09:15:01;97.47;;;29.65;;
22103;SDS011;11218;48.886;9.426;2022-11-30T09:17:29;72.25;;;25.08;;
22103;SDS011;11218;48.886;9.426;2022-11-30T09:19:58;61.58;;;22.15;;
22103;SDS011;11218;48.886;9.426;2022-11-30T09:22:27;72.65;;;23.80;;
22103;SDS011;11218;48.886;9.426;2022-11-30T09:24:55;71.10;;;23.60;;
22103;SDS011;11218;48.886;9.426;2022-11-30T09:27:22;67.13;;;23.63;;
22103;SDS011;11218;48.886;9.426;2022-11-30T09:29:55;77.07;;;25.40;;
22103;SDS011;11218;48.886;9.426;2022-11-30T09:32:23;79.07;;;24.90;;
22103;SDS011;11218;48.886;9.426;2022-11-30T09:34:51;65.00;;;21.98;;
22103;SDS011;11218;48.886;9.426;2022-11-30T09:37:21;64.20;;;22.40;;
22103;SDS011;11218;48.886;9.426;2022-11-30T09:39:49;55.95;;;20.83;;
22103;SDS011;11218;48.886;9.426;2022-11-30T09:42:23;68.88;;;24.30;;
22103;SDS011;11218;48.886;9.426;2022-11-30T09:45:00;70.38;;;23.27;;
22103;SDS011;11218;48.886;9.426;2022-11-30T09:50:36;104.93;;;29.75;;
22103;SDS011;11218;48.886;9.426;2022-11-30T09:53:10;81.45;;;25.33;;
22103;SDS011;11218;48.886;9.426;2022-11-30T09:55:52;67.57;;;23.58;;
22103;SDS011;11218;48.886;9.426;2022-11-30T09:58:24;75.45;;;24.40;;
22103;SDS011;11218;48.886;9.426;2022-11-30T10:01:01;77.50;;;24.60;;
22103;SDS011;11218;48.886;9.426;2022-11-30T10:03:32;73.13;;;24.25;;
22103;SDS011;11218;48.886;9.426;2022-11-30T10:06:02;57.47;;;21.00;;
22103;SDS011;11218;48.886;9.426;2022-11-30T10:08:38;78.50;;;23.65;;
22103;SDS011;11218;48.886;9.426;2022-11-30T10:11:26;63.03;;;20.52;;
22103;SDS011;11218;48.886;9.426;2022-11-30T10:14:16;60.05;;;21.60;;
22103;SDS011;11218;48.886;9.426;2022-11-30T10:17:05;48.15;;;18.95;;
22103;SDS011;11218;48.886;9.426;2022-11-30T10:19:49;60.15;;;20.00;;
22103;SDS011;11218;48.886;9.426;2022-11-30T10:22:28;115.65;;;35.83;;
22103;SDS011;11218;48.886;9.426;2022-11-30T10:25:11;55.20;;;20.20;;
22103;SDS011;11218;48.886;9.426;2022-11-30T10:27:47;56.42;;;20.85;;
22103;SDS011;11218;48.886;9.426;2022-11-30T10:30:18;64.50;;;21.13;;
22103;SDS011;11218;48.886;9.426;2022-11-30T10:32:50;68.18;;;22.80;;
22103;SDS011;11218;48.886;9.426;2022-11-30T10:35:22;58.97;;;20.10;;
22103;SDS011;11218;48.886;9.426;2022-11-30T10:38:02;58.53;;;19.10;;
22103;SDS011;11218;48.886;9.426;2022-11-30T10:40:38;59.78;;;19.90;;
22103;SDS011;11218;48.886;9.426;2022-11-30T10:43:13;78.03;;;23.83;;
22103;SDS011;11218;48.886;9.426;2022-11-30T10:45:45;105.22;;;23.70;;
22103;SDS011;11218;48.886;9.426;2022-11-30T10:48:16;72.43;;;20.48;;
22103;SDS011;11218;48.886;9.426;2022-11-30T10:50:50;79.88;;;22.52;;
22103;SDS011;11218;48.886;9.426;2022-11-30T10:53:19;103.35;;;24.92;;
22103;SDS011;11218;48.886;9.426;2022-11-30T10:55:51;76.25;;;22.98;;
22103;SDS011;11218;48.886;9.426;2022-11-30T10:58:26;60.90;;;21.35;;
22103;SDS011;11218;48.886;9.426;2022-11-30T11:00:59;62.40;;;21.17;;
22103;SDS011;11218;48.886;9.426;2022-11-30T11:03:29;60.25;;;19.83;;
22103;SDS011;11218;48.886;9.426;2022-11-30T11:06:01;51.13;;;17.67;;
22103;SDS011;11218;48.886;9.426;2022-11-30T11:08:33;54.40;;;19.30;;
22103;SDS011;11218;48.886;9.426;2022-11-30T11:11:03;58.75;;;19.33;;
22103;SDS011;11218;48.886;9.426;2022-11-30T11:13:51;72.47;;;21.75;;
22103;SDS011;11218;48.886;9.426;2022-11-30T11:16:19;54.55;;;19.48;;
22103;SDS011;11218;48.886;9.426;2022-11-30T11:18:50;73.88;;;22.35;;
22103;SDS011;11218;48.886;9.426;2022-11-30T11:21:20;61.65;;;21.45;;
22103;SDS011;11218;48.886;9.426;2022-11-30T11:23:50;58.78;;;20.48;;
22103;SDS011;11218;48.886;9.426;2022-11-30T11:26:22;60.13;;;21.25;;
22103;SDS011;11218;48.886;9.426;2022-11-30T11:28:51;66.45;;;20.38;;
22103;SDS011;11218;48.886;9.426;2022-11-30T11:31:30;80.65;;;25.08;;
22103;SDS011;11218;48.886;9.426;2022-11-30T11:34:02;55.22;;;19.42;;
22103;SDS011;11218;48.886;9.426;2022-11-30T11:36:34;59.00;;;20.95;;
22103;SDS011;11218;48.886;9.426;2022-11-30T11:39:07;59.78;;;19.88;;
22103;SDS011;11218;48.886;9.426;2022-11-30T11:41:53;65.25;;;21.70;;
22103;SDS011;11218;48.886;9.426;2022-11-30T11:44:21;63.83;;;19.75;;
22103;SDS011;11218;48.886;9.426;2022-11-30T11:46:53;50.55;;;17.02;;
22103;SDS011;11218;48.886;9.426;2022-11-30T11:49:25;45.78;;;17.77;;
22103;SDS011;11218;48.886;9.426;2022-11-30T11:51:58;54.35;;;19.00;;
22103;SDS011;11218;48.886;9.426;2022-11-30T11:54:28;45.08;;;16.45;;
22103;SDS011;11218;48.886;9.426;2022-11-30T11:57:01;51.80;;;17.35;;
22103;SDS011;11218;48.886;9.426;2022-11-30T11:59:32;52.83;;;17.33;;
22103;SDS011;11218;48.886;9.426;2022-11-30T12:02:11;47.13;;;16.85;;
22103;SDS011;11218;48.886;9.426;2022-11-30T12:04:49;49.13;;;17.63;;
22103;SDS011;11218;48.886;9.426;2022-11-30T12:07:21;63.67;;;19.38;;
22103;SDS011;11218;48.886;9.426;2022-11-30T12:09:58;62.75;;;19.67;;
22103;SDS011;11218;48.886;9.426;2022-11-30T12:12:54;65.13;;;20.70;;
22103;SDS011;11218;48.886;9.426;2022-11-30T12:15:22;65.80;;;20.63;;
22103;SDS011;11218;48.886;9.426;2022-11-30T12:17:59;59.47;;;18.65;;
22103;SDS011;11218;48.886;9.426;2022-11-30T12:20:44;55.65;;;19.13;;
22103;SDS011;11218;48.886;9.426;2022-11-30T12:23:27;64.50;;;20.00;;
22103;SDS011;11218;48.886;9.426;2022-11-30T12:26:06;62.47;;;20.08;;
22103;SDS011;11218;48.886;9.426;2022-11-30T12:28:45;67.82;;;20.58;;
22103;SDS011;11218;48.886;9.426;2022-11-30T12:31:29;79.65;;;22.60;;
22103;SDS011;11218;48.886;9.426;2022-11-30T12:34:06;60.38;;;20.05;;
22103;SDS011;11218;48.886;9.426;2022-11-30T12:36:46;67.93;;;22.73;;
22103;SDS011;11218;48.886;9.426;2022-11-30T12:39:26;72.07;;;23.02;;
22103;SDS011;11218;48.886;9.426;2022-11-30T12:42:03;74.30;;;25.17;;
22103;SDS011;11218;48.886;9.426;2022-11-30T12:44:40;58.88;;;21.25;;
22103;SDS011;11218;48.886;9.426;2022-11-30T12:47:21;62.58;;;22.38;;
22103;SDS011;11218;48.886;9.426;2022-11-30T12:50:10;56.92;;;19.80;;
22103;SDS011;11218;48.886;9.426;2022-11-30T12:52:51;56.15;;;19.65;;
22103;SDS011;11218;48.886;9.426;2022-11-30T12:55:30;58.75;;;19.35;;
22103;SDS011;11218;48.886;9.426;2022-11-30T12:58:07;63.15;;;20.70;;
22103;SDS011;11218;48.886;9.426;2022-11-30T13:00:55;53.28;;;19.67;;
22103;SDS011;11218;48.886;9.426;2022-11-30T13:03:40;44.47;;;17.92;;
22103;SDS011;11218;48.886;9.426;2022-11-30T13:06:16;54.60;;;19.20;;
22103;SDS011;11218;48.886;9.426;2022-11-30T13:08:50;51.90;;;18.13;;
22103;SDS011;11218;48.886;9.426;2022-11-30T13:11:24;49.35;;;19.00;;
22103;SDS011;11218;48.886;9.426;2022-11-30T13:13:57;51.92;;;19.00;;
22103;SDS011;11218;48.886;9.426;2022-11-30T13:16:28;61.22;;;21.02;;
22103;SDS011;11218;48.886;9.426;2022-11-30T13:19:00;62.60;;;22.25;;
22103;SDS011;11218;48.886;9.426;2022-11-30T13:21:38;56.90;;;21.42;;
22103;SDS011;11218;48.886;9.426;2022-11-30T13:24:12;54.30;;;20.20;;
22103;SDS011;11218;48.886;9.426;2022-11-30T13:26:48;62.55;;;21.30;;
22103;SDS011;11218;48.886;9.426;2022-11-30T13:29:25;58.03;;;21.63;;
22103;SDS011;11218;48.886;9.426;2022-11-30T13:32:13;67.10;;;22.85;;
22103;SDS011;11218;48.886;9.426;2022-11-30T13:38:14;57.38;;;21.23;;
22103;SDS011;11218;48.886;9.426;2022-11-30T13:41:05;49.10;;;18.58;;
22103;SDS011;11218;48.886;9.426;2022-11-30T13:43:35;56.92;;;19.88;;
22103;SDS011;11218;48.886;9.426;2022-11-30T13:46:12;62.45;;;22.10;;
22103;SDS011;11218;48.886;9.426;2022-11-30T13:48:43;69.03;;;22.63;;
22103;SDS011;11218;48.886;9.426;2022-11-30T13:51:12;54.63;;;20.60;;
22103;SDS011;11218;48.886;9.426;2022-11-30T13:57:02;58.10;;;21.20;;
22103;SDS011;11218;48.886;9.426;2022-11-30T13:59:45;40.92;;;18.08;;
22103;SDS011;11218;48.886;9.426;2022-11-30T14:05:22;70.97;;;23.02;;
22103;SDS011;11218;48.886;9.426;2022-11-30T14:17:12;68.65;;;23.33;;
22103;SDS011;11218;48.886;9.426;2022-11-30T14:19:45;70.35;;;23.75;;
22103;SDS011;11218;48.886;9.426;2022-11-30T14:22:18;55.50;;;21.27;;
22103;SDS011;11218;48.886;9.426;2022-11-30T14:24:47;61.25;;;22.23;;
22103;SDS011;11218;48.886;9.426;2022-11-30T14:27:17;55.83;;;20.85;;
22103;SDS011;11218;48.886;9.426;2022-11-30T14:29:49;74.65;;;23.60;;
22103;SDS011;11218;48.886;9.426;2022-11-30T14:32:32;57.47;;;20.52;;
22103;SDS011;11218;48.886;9.426;2022-11-30T14:35:06;69.07;;;23.17;;
22103;SDS011;11218;48.886;9.426;2022-11-30T14:37:41;67.03;;;22.50;;
22103;SDS011;11218;48.886;9.426;2022-11-30T14:40:18;55.67;;;20.05;;
22103;SDS011;11218;48.886;9.426;2022-11-30T14:42:48;51.47;;;21.42;;
22103;SDS011;11218;48.886;9.426;2022-11-30T14:45:19;60.45;;;21.90;;
22103;SDS011;11218;48.886;9.426;2022-11-30T14:47:49;52.28;;;20.02;;
22103;SDS011;11218;48.886;9.426;2022-11-30T14:50:21;55.45;;;20.80;;
22103;SDS011;11218;48.886;9.426;2022-11-30T14:52:54;56.72;;;21.08;;
22103;SDS011;11218;48.886;9.426;2022-11-30T14:55:30;67.28;;;23.13;;
22103;SDS011;11218;48.886;9.426;2022-11-30T14:58:07;47.85;;;19.95;;
22103;SDS011;11218;48.886;9.426;2022-11-30T15:00:43;56.83;;;20.98;;
22103;SDS011;11218;48.886;9.426;2022-11-30T15:03:16;72.00;;;23.40;;
22103;SDS011;11218;48.886;9.426;2022-11-30T15:05:52;62.72;;;22.15;;
22103;SDS011;11218;48.886;9.426;2022-11-30T15:08:24;57.15;;;20.73;;